sensor_id;sensor_type;location;lat;lon;timestamp;P1;durP1;ratioP1;P2;durP2;ratioP2
7813;SDS011;3952;48.364;16.022;2022-12-07T00:01:23;16.33;;;13.73;;
7813;SDS011;3952;48.364;16.022;2022-12-07T00:03:53;15.47;;;13.87;;
7813;SDS011;3952;48.364;16.022;2022-12-07T00:06:22;17.70;;;14.33;;
7813;SDS011;3952;48.364;16.022;2022-12-07T00:08:49;16.10;;;13.93;;
7813;SDS011;3952;48.364;16.022;2022-12-07T00:11:17;19.30;;;14.60;;
7813;SDS011;3952;48.364;16.022;2022-12-07T00:13:46;15.93;;;14.23;;
7813;SDS011;3952;48.364;16.022;2022-12-07T00:16:19;16.63;;;13.93;;
7813;SDS011;3952;48.364;16.022;2022-12-07T00:18:47;16.80;;;15.00;;
7813;SDS011;3952;48.364;16.022;2022-12-07T00:21:15;16.90;;;14.93;;
7813;SDS011;3952;48.364;16.022;2022-12-07T00:23:44;15.50;;;13.57;;
7813;SDS011;3952;48.364;16.022;2022-12-07T00:26:13;17.20;;;14.37;;
7813;SDS011;3952;48.364;16.022;2022-12-07T00:28:44;15.53;;;13.87;;
7813;SDS011;3952;48.364;16.022;2022-12-07T00:31:13;15.93;;;14.30;;
7813;SDS011;3952;48.364;16.022;2022-12-07T00:33:43;17.07;;;14.53;;
7813;SDS011;3952;48.364;16.022;2022-12-07T00:36:12;15.80;;;14.20;;
7813;SDS011;3952;48.364;16.022;2022-12-07T00:38:41;14.97;;;13.30;;
7813;SDS011;3952;48.364;16.022;2022-12-07T00:41:10;14.70;;;13.23;;
7813;SDS011;3952;48.364;16.022;2022-12-07T00:43:39;13.63;;;12.37;;
7813;SDS011;3952;48.364;16.022;2022-12-07T00:46:07;15.00;;;12.93;;
7813;SDS011;3952;48.364;16.022;2022-12-07T00:48:35;14.80;;;13.30;;
7813;SDS011;3952;48.364;16.022;2022-12-07T00:51:03;14.30;;;12.90;;
7813;SDS011;3952;48.364;16.022;2022-12-07T00:53:31;14.93;;;13.53;;
7813;SDS011;3952;48.364;16.022;2022-12-07T00:56:04;14.07;;;12.77;;
7813;SDS011;3952;48.364;16.022;2022-12-07T00:58:32;15.03;;;13.60;;
7813;SDS011;3952;48.364;16.022;2022-12-07T01:00:59;17.80;;;15.40;;
7813;SDS011;3952;48.364;16.022;2022-12-07T01:03:27;16.93;;;15.10;;
7813;SDS011;3952;48.364;16.022;2022-12-07T01:05:55;17.03;;;15.07;;
7813;SDS011;3952;48.364;16.022;2022-12-07T01:08:25;20.70;;;15.37;;
7813;SDS011;3952;48.364;16.022;2022-12-07T01:10:57;17.57;;;15.20;;
7813;SDS011;3952;48.364;16.022;2022-12-07T01:13:26;16.93;;;14.70;;
7813;SDS011;3952;48.364;16.022;2022-12-07T01:15:55;20.43;;;16.67;;
7813;SDS011;3952;48.364;16.022;2022-12-07T01:18:25;17.87;;;15.67;;
7813;SDS011;3952;48.364;16.022;2022-12-07T01:20:59;20.67;;;15.97;;
7813;SDS011;3952;48.364;16.022;2022-12-07T01:23:29;17.70;;;15.70;;
7813;SDS011;3952;48.364;16.022;2022-12-07T01:25:57;18.97;;;15.97;;
7813;SDS011;3952;48.364;16.022;2022-12-07T01:28:26;21.17;;;16.83;;
7813;SDS011;3952;48.364;16.022;2022-12-07T01:30:57;20.40;;;15.83;;
7813;SDS011;3952;48.364;16.022;2022-12-07T01:33:26;20.97;;;16.07;;
7813;SDS011;3952;48.364;16.022;2022-12-07T01:35:54;22.97;;;17.27;;
7813;SDS011;3952;48.364;16.022;2022-12-07T01:38:26;19.73;;;16.47;;
7813;SDS011;3952;48.364;16.022;2022-12-07T01:40:56;19.07;;;15.80;;
7813;SDS011;3952;48.364;16.022;2022-12-07T01:43:23;18.83;;;15.23;;
7813;SDS011;3952;48.364;16.022;2022-12-07T01:45:53;21.13;;;16.43;;
7813;SDS011;3952;48.364;16.022;2022-12-07T01:48:22;19.27;;;15.60;;
7813;SDS011;3952;48.364;16.022;2022-12-07T01:50:51;21.30;;;16.60;;
7813;SDS011;3952;48.364;16.022;2022-12-07T01:53:21;20.93;;;15.57;;
7813;SDS011;3952;48.364;16.022;2022-12-07T01:55:54;22.07;;;16.30;;
7813;SDS011;3952;48.364;16.022;2022-12-07T01:58:23;20.80;;;16.87;;
7813;SDS011;3952;48.364;16.022;2022-12-07T02:00:51;18.60;;;15.20;;
7813;SDS011;3952;48.364;16.022;2022-12-07T02:03:19;20.27;;;15.93;;
7813;SDS011;3952;48.364;16.022;2022-12-07T02:05:50;22.70;;;15.03;;
7813;SDS011;3952;48.364;16.022;2022-12-07T02:08:19;18.73;;;15.13;;
7813;SDS011;3952;48.364;16.022;2022-12-07T02:10:47;17.67;;;14.97;;
7813;SDS011;3952;48.364;16.022;2022-12-07T02:13:16;16.93;;;14.73;;
7813;SDS011;3952;48.364;16.022;2022-12-07T02:15:54;19.17;;;15.47;;
7813;SDS011;3952;48.364;16.022;2022-12-07T02:18:34;19.50;;;15.40;;
7813;SDS011;3952;48.364;16.022;2022-12-07T02:21:11;17.10;;;14.10;;
7813;SDS011;3952;48.364;16.022;2022-12-07T02:26:53;17.40;;;14.67;;
7813;SDS011;3952;48.364;16.022;2022-12-07T02:29:30;17.90;;;14.80;;
7813;SDS011;3952;48.364;16.022;2022-12-07T02:32:03;17.83;;;15.23;;
7813;SDS011;3952;48.364;16.022;2022-12-07T02:34:37;17.77;;;14.70;;
7813;SDS011;3952;48.364;16.022;2022-12-07T02:37:13;17.60;;;14.87;;
7813;SDS011;3952;48.364;16.022;2022-12-07T02:39:47;17.00;;;14.47;;
7813;SDS011;3952;48.364;16.022;2022-12-07T02:42:20;17.03;;;14.40;;
7813;SDS011;3952;48.364;16.022;2022-12-07T02:44:52;18.93;;;15.30;;
7813;SDS011;3952;48.364;16.022;2022-12-07T02:47:20;18.97;;;14.67;;
7813;SDS011;3952;48.364;16.022;2022-12-07T02:49:50;17.37;;;14.93;;
7813;SDS011;3952;48.364;16.022;2022-12-07T02:52:18;17.60;;;14.40;;
7813;SDS011;3952;48.364;16.022;2022-12-07T02:54:45;18.00;;;14.27;;
7813;SDS011;3952;48.364;16.022;2022-12-07T02:57:18;18.17;;;14.97;;
7813;SDS011;3952;48.364;16.022;2022-12-07T03:00:03;17.50;;;14.50;;
7813;SDS011;3952;48.364;16.022;2022-12-07T03:02:35;16.30;;;14.50;;
7813;SDS011;3952;48.364;16.022;2022-12-07T03:05:15;19.83;;;14.63;;
7813;SDS011;3952;48.364;16.022;2022-12-07T03:07:58;16.53;;;14.10;;
7813;SDS011;3952;48.364;16.022;2022-12-07T03:10:33;17.77;;;14.13;;
7813;SDS011;3952;48.364;16.022;2022-12-07T03:13:09;17.73;;;13.63;;
7813;SDS011;3952;48.364;16.022;2022-12-07T03:15:45;13.97;;;12.47;;
7813;SDS011;3952;48.364;16.022;2022-12-07T03:18:16;14.67;;;13.20;;
7813;SDS011;3952;48.364;16.022;2022-12-07T03:20:48;15.80;;;13.47;;
7813;SDS011;3952;48.364;16.022;2022-12-07T03:23:18;14.43;;;13.03;;
7813;SDS011;3952;48.364;16.022;2022-12-07T03:25:49;15.63;;;12.97;;
7813;SDS011;3952;48.364;16.022;2022-12-07T03:28:20;13.63;;;12.20;;
7813;SDS011;3952;48.364;16.022;2022-12-07T03:30:52;14.87;;;13.27;;
7813;SDS011;3952;48.364;16.022;2022-12-07T03:33:26;14.97;;;13.37;;
7813;SDS011;3952;48.364;16.022;2022-12-07T03:35:58;14.73;;;12.77;;
7813;SDS011;3952;48.364;16.022;2022-12-07T03:38:32;13.73;;;12.33;;
7813;SDS011;3952;48.364;16.022;2022-12-07T03:41:05;16.27;;;13.50;;
7813;SDS011;3952;48.364;16.022;2022-12-07T03:43:33;16.53;;;13.30;;
7813;SDS011;3952;48.364;16.022;2022-12-07T03:46:06;14.10;;;12.57;;
7813;SDS011;3952;48.364;16.022;2022-12-07T03:48:43;13.77;;;12.37;;
7813;SDS011;3952;48.364;16.022;2022-12-07T03:51:18;18.57;;;13.67;;
7813;SDS011;3952;48.364;16.022;2022-12-07T03:53:50;14.07;;;12.03;;
7813;SDS011;3952;48.364;16.022;2022-12-07T03:56:21;15.00;;;12.67;;
7813;SDS011;3952;48.364;16.022;2022-12-07T03:58:49;16.63;;;13.13;;
7813;SDS011;3952;48.364;16.022;2022-12-07T04:01:19;14.00;;;12.37;;
7813;SDS011;3952;48.364;16.022;2022-12-07T04:03:48;16.70;;;12.90;;
7813;SDS011;3952;48.364;16.022;2022-12-07T04:06:16;13.63;;;12.00;;
7813;SDS011;3952;48.364;16.022;2022-12-07T04:08:43;15.70;;;12.10;;
7813;SDS011;3952;48.364;16.022;2022-12-07T04:11:10;14.40;;;12.33;;
7813;SDS011;3952;48.364;16.022;2022-12-07T04:13:38;18.10;;;12.40;;
7813;SDS011;3952;48.364;16.022;2022-12-07T04:16:20;13.50;;;12.10;;
7813;SDS011;3952;48.364;16.022;2022-12-07T04:18:47;15.07;;;12.70;;
7813;SDS011;3952;48.364;16.022;2022-12-07T04:21:14;23.93;;;13.20;;
7813;SDS011;3952;48.364;16.022;2022-12-07T04:23:41;13.57;;;12.13;;
7813;SDS011;3952;48.364;16.022;2022-12-07T04:26:10;14.17;;;11.83;;
7813;SDS011;3952;48.364;16.022;2022-12-07T04:28:37;15.17;;;13.13;;
7813;SDS011;3952;48.364;16.022;2022-12-07T04:31:04;12.90;;;11.67;;
7813;SDS011;3952;48.364;16.022;2022-12-07T04:33:33;14.20;;;12.07;;
7813;SDS011;3952;48.364;16.022;2022-12-07T04:36:01;13.23;;;11.80;;
7813;SDS011;3952;48.364;16.022;2022-12-07T04:38:28;13.57;;;12.17;;
7813;SDS011;3952;48.364;16.022;2022-12-07T04:40:56;14.93;;;11.43;;
7813;SDS011;3952;48.364;16.022;2022-12-07T04:43:23;12.00;;;10.80;;
7813;SDS011;3952;48.364;16.022;2022-12-07T04:45:50;12.37;;;11.17;;
7813;SDS011;3952;48.364;16.022;2022-12-07T04:48:17;12.27;;;10.97;;
7813;SDS011;3952;48.364;16.022;2022-12-07T04:50:47;13.40;;;12.00;;
7813;SDS011;3952;48.364;16.022;2022-12-07T04:53:14;11.60;;;10.40;;
7813;SDS011;3952;48.364;16.022;2022-12-07T04:55:42;12.30;;;10.90;;
7813;SDS011;3952;48.364;16.022;2022-12-07T04:58:09;12.07;;;10.83;;
7813;SDS011;3952;48.364;16.022;2022-12-07T05:00:37;12.60;;;10.27;;
7813;SDS011;3952;48.364;16.022;2022-12-07T05:03:04;11.50;;;10.40;;
7813;SDS011;3952;48.364;16.022;2022-12-07T05:05:31;12.07;;;10.63;;
7813;SDS011;3952;48.364;16.022;2022-12-07T05:08:00;11.73;;;10.53;;
7813;SDS011;3952;48.364;16.022;2022-12-07T05:10:27;12.10;;;10.87;;
7813;SDS011;3952;48.364;16.022;2022-12-07T05:12:54;13.57;;;10.73;;
7813;SDS011;3952;48.364;16.022;2022-12-07T05:15:21;12.00;;;10.77;;
7813;SDS011;3952;48.364;16.022;2022-12-07T05:17:48;12.63;;;11.43;;
7813;SDS011;3952;48.364;16.022;2022-12-07T05:20:17;11.40;;;10.13;;
7813;SDS011;3952;48.364;16.022;2022-12-07T05:22:44;11.70;;;10.53;;
7813;SDS011;3952;48.364;16.022;2022-12-07T05:25:13;10.87;;;9.83;;
7813;SDS011;3952;48.364;16.022;2022-12-07T05:27:41;11.03;;;10.03;;
7813;SDS011;3952;48.364;16.022;2022-12-07T05:30:08;11.23;;;10.13;;
7813;SDS011;3952;48.364;16.022;2022-12-07T05:32:36;10.73;;;9.73;;
7813;SDS011;3952;48.364;16.022;2022-12-07T05:35:03;10.90;;;9.80;;
7813;SDS011;3952;48.364;16.022;2022-12-07T05:37:31;11.67;;;10.47;;
7813;SDS011;3952;48.364;16.022;2022-12-07T05:39:58;13.87;;;9.80;;
7813;SDS011;3952;48.364;16.022;2022-12-07T05:42:27;11.03;;;9.93;;
7813;SDS011;3952;48.364;16.022;2022-12-07T05:44:54;11.07;;;10.07;;
7813;SDS011;3952;48.364;16.022;2022-12-07T05:47:21;10.63;;;9.17;;
7813;SDS011;3952;48.364;16.022;2022-12-07T05:49:49;10.50;;;9.50;;
7813;SDS011;3952;48.364;16.022;2022-12-07T05:52:16;9.73;;;8.90;;
7813;SDS011;3952;48.364;16.022;2022-12-07T05:54:43;9.67;;;8.87;;
7813;SDS011;3952;48.364;16.022;2022-12-07T05:57:10;9.97;;;9.07;;
7813;SDS011;3952;48.364;16.022;2022-12-07T05:59:39;10.33;;;9.33;;
7813;SDS011;3952;48.364;16.022;2022-12-07T06:02:06;9.37;;;8.63;;
7813;SDS011;3952;48.364;16.022;2022-12-07T06:04:37;9.63;;;8.83;;
7813;SDS011;3952;48.364;16.022;2022-12-07T06:07:06;10.13;;;9.23;;
7813;SDS011;3952;48.364;16.022;2022-12-07T06:09:34;9.90;;;9.00;;
7813;SDS011;3952;48.364;16.022;2022-12-07T06:12:02;8.93;;;8.27;;
7813;SDS011;3952;48.364;16.022;2022-12-07T06:14:48;8.97;;;8.17;;
7813;SDS011;3952;48.364;16.022;2022-12-07T06:17:15;10.37;;;8.47;;
7813;SDS011;3952;48.364;16.022;2022-12-07T06:19:43;10.93;;;8.90;;
7813;SDS011;3952;48.364;16.022;2022-12-07T06:22:10;10.53;;;9.53;;
7813;SDS011;3952;48.364;16.022;2022-12-07T06:24:38;9.00;;;8.20;;
7813;SDS011;3952;48.364;16.022;2022-12-07T06:27:06;10.00;;;9.07;;
7813;SDS011;3952;48.364;16.022;2022-12-07T06:29:33;9.60;;;8.80;;
7813;SDS011;3952;48.364;16.022;2022-12-07T06:32:03;9.87;;;8.87;;
7813;SDS011;3952;48.364;16.022;2022-12-07T06:34:31;9.90;;;9.00;;
7813;SDS011;3952;48.364;16.022;2022-12-07T06:36:58;9.70;;;8.80;;
7813;SDS011;3952;48.364;16.022;2022-12-07T06:39:26;9.93;;;9.03;;
7813;SDS011;3952;48.364;16.022;2022-12-07T06:41:54;9.47;;;8.67;;
7813;SDS011;3952;48.364;16.022;2022-12-07T06:44:22;9.90;;;9.00;;
7813;SDS011;3952;48.364;16.022;2022-12-07T06:46:50;11.17;;;10.07;;
7813;SDS011;3952;48.364;16.022;2022-12-07T06:49:19;10.17;;;9.17;;
7813;SDS011;3952;48.364;16.022;2022-12-07T06:51:46;9.97;;;8.97;;
7813;SDS011;3952;48.364;16.022;2022-12-07T06:54:14;10.63;;;9.43;;
7813;SDS011;3952;48.364;16.022;2022-12-07T06:56:45;9.20;;;8.40;;
7813;SDS011;3952;48.364;16.022;2022-12-07T06:59:12;10.00;;;9.00;;
7813;SDS011;3952;48.364;16.022;2022-12-07T07:01:39;9.27;;;8.37;;
7813;SDS011;3952;48.364;16.022;2022-12-07T07:04:07;9.70;;;8.90;;
7813;SDS011;3952;48.364;16.022;2022-12-07T07:06:36;9.63;;;8.80;;
7813;SDS011;3952;48.364;16.022;2022-12-07T07:09:03;10.57;;;9.57;;
7813;SDS011;3952;48.364;16.022;2022-12-07T07:11:30;9.20;;;8.50;;
7813;SDS011;3952;48.364;16.022;2022-12-07T07:13:57;9.97;;;9.07;;
7813;SDS011;3952;48.364;16.022;2022-12-07T07:16:27;9.87;;;8.87;;
7813;SDS011;3952;48.364;16.022;2022-12-07T07:18:55;9.80;;;8.90;;
7813;SDS011;3952;48.364;16.022;2022-12-07T07:21:23;9.87;;;9.07;;
7813;SDS011;3952;48.364;16.022;2022-12-07T07:23:52;9.50;;;8.67;;
7813;SDS011;3952;48.364;16.022;2022-12-07T07:26:34;9.13;;;8.33;;
7813;SDS011;3952;48.364;16.022;2022-12-07T07:29:02;9.70;;;8.90;;
7813;SDS011;3952;48.364;16.022;2022-12-07T07:31:29;10.07;;;9.07;;
7813;SDS011;3952;48.364;16.022;2022-12-07T07:33:56;9.70;;;8.73;;
7813;SDS011;3952;48.364;16.022;2022-12-07T07:36:23;11.47;;;8.27;;
7813;SDS011;3952;48.364;16.022;2022-12-07T07:38:52;9.67;;;8.87;;
7813;SDS011;3952;48.364;16.022;2022-12-07T07:41:19;9.03;;;8.23;;
7813;SDS011;3952;48.364;16.022;2022-12-07T07:43:47;9.63;;;8.83;;
7813;SDS011;3952;48.364;16.022;2022-12-07T07:46:14;9.00;;;8.10;;
7813;SDS011;3952;48.364;16.022;2022-12-07T07:48:41;8.60;;;7.90;;
7813;SDS011;3952;48.364;16.022;2022-12-07T07:51:08;12.33;;;9.23;;
7813;SDS011;3952;48.364;16.022;2022-12-07T07:53:35;9.47;;;8.63;;
7813;SDS011;3952;48.364;16.022;2022-12-07T07:56:04;8.10;;;7.50;;
7813;SDS011;3952;48.364;16.022;2022-12-07T07:58:32;8.93;;;8.13;;
7813;SDS011;3952;48.364;16.022;2022-12-07T08:01:03;9.07;;;8.17;;
7813;SDS011;3952;48.364;16.022;2022-12-07T08:03:30;8.60;;;7.80;;
7813;SDS011;3952;48.364;16.022;2022-12-07T08:05:57;9.10;;;7.80;;
7813;SDS011;3952;48.364;16.022;2022-12-07T08:08:25;8.83;;;8.03;;
7813;SDS011;3952;48.364;16.022;2022-12-07T08:10:52;9.03;;;8.23;;
7813;SDS011;3952;48.364;16.022;2022-12-07T08:13:21;9.47;;;8.67;;
7813;SDS011;3952;48.364;16.022;2022-12-07T08:15:48;8.50;;;7.80;;
7813;SDS011;3952;48.364;16.022;2022-12-07T08:18:15;9.20;;;8.40;;
7813;SDS011;3952;48.364;16.022;2022-12-07T08:20:42;8.23;;;7.43;;
7813;SDS011;3952;48.364;16.022;2022-12-07T08:23:10;8.40;;;7.70;;
7813;SDS011;3952;48.364;16.022;2022-12-07T08:25:38;8.00;;;7.40;;
7813;SDS011;3952;48.364;16.022;2022-12-07T08:28:06;8.63;;;7.93;;
7813;SDS011;3952;48.364;16.022;2022-12-07T08:33:26;7.40;;;6.90;;
7813;SDS011;3952;48.364;16.022;2022-12-07T08:35:54;7.10;;;6.60;;
7813;SDS011;3952;48.364;16.022;2022-12-07T08:38:21;7.20;;;6.70;;
7813;SDS011;3952;48.364;16.022;2022-12-07T08:40:53;6.90;;;6.40;;
7813;SDS011;3952;48.364;16.022;2022-12-07T08:43:21;6.70;;;6.30;;
7813;SDS011;3952;48.364;16.022;2022-12-07T08:45:49;7.13;;;6.57;;
7813;SDS011;3952;48.364;16.022;2022-12-07T08:48:24;7.10;;;6.60;;
7813;SDS011;3952;48.364;16.022;2022-12-07T08:50:52;6.23;;;5.83;;
7813;SDS011;3952;48.364;16.022;2022-12-07T08:53:20;6.23;;;5.80;;
7813;SDS011;3952;48.364;16.022;2022-12-07T08:55:47;6.77;;;6.27;;
7813;SDS011;3952;48.364;16.022;2022-12-07T08:58:15;6.50;;;6.10;;
7813;SDS011;3952;48.364;16.022;2022-12-07T09:00:43;5.80;;;5.40;;
7813;SDS011;3952;48.364;16.022;2022-12-07T09:03:10;6.57;;;6.13;;
7813;SDS011;3952;48.364;16.022;2022-12-07T09:05:39;6.40;;;5.90;;
7813;SDS011;3952;48.364;16.022;2022-12-07T09:08:06;6.47;;;6.07;;
7813;SDS011;3952;48.364;16.022;2022-12-07T09:10:34;6.33;;;5.90;;
7813;SDS011;3952;48.364;16.022;2022-12-07T09:13:04;5.10;;;4.80;;
7813;SDS011;3952;48.364;16.022;2022-12-07T09:15:32;6.67;;;5.00;;
7813;SDS011;3952;48.364;16.022;2022-12-07T09:18:00;4.90;;;4.50;;
7813;SDS011;3952;48.364;16.022;2022-12-07T09:20:27;5.30;;;5.00;;
7813;SDS011;3952;48.364;16.022;2022-12-07T09:22:56;5.40;;;5.00;;
7813;SDS011;3952;48.364;16.022;2022-12-07T09:25:23;4.40;;;4.20;;
7813;SDS011;3952;48.364;16.022;2022-12-07T09:27:54;4.20;;;4.00;;
7813;SDS011;3952;48.364;16.022;2022-12-07T09:30:22;4.13;;;3.93;;
7813;SDS011;3952;48.364;16.022;2022-12-07T09:32:51;4.03;;;3.73;;
7813;SDS011;3952;48.364;16.022;2022-12-07T09:35:19;3.87;;;3.67;;
7813;SDS011;3952;48.364;16.022;2022-12-07T09:37:47;4.50;;;4.20;;
7813;SDS011;3952;48.364;16.022;2022-12-07T09:40:15;4.93;;;4.43;;
7813;SDS011;3952;48.364;16.022;2022-12-07T09:42:46;4.40;;;4.20;;
7813;SDS011;3952;48.364;16.022;2022-12-07T09:45:16;4.60;;;4.40;;
7813;SDS011;3952;48.364;16.022;2022-12-07T09:47:47;5.50;;;5.13;;
7813;SDS011;3952;48.364;16.022;2022-12-07T09:50:15;4.97;;;4.67;;
7813;SDS011;3952;48.364;16.022;2022-12-07T09:52:45;4.77;;;4.47;;
7813;SDS011;3952;48.364;16.022;2022-12-07T09:55:18;4.70;;;4.50;;
7813;SDS011;3952;48.364;16.022;2022-12-07T09:57:50;5.20;;;4.90;;
7813;SDS011;3952;48.364;16.022;2022-12-07T10:00:20;5.70;;;5.33;;
7813;SDS011;3952;48.364;16.022;2022-12-07T10:02:52;5.53;;;5.23;;
7813;SDS011;3952;48.364;16.022;2022-12-07T10:05:22;5.40;;;5.10;;
7813;SDS011;3952;48.364;16.022;2022-12-07T10:07:53;5.70;;;5.40;;
7813;SDS011;3952;48.364;16.022;2022-12-07T10:10:23;5.00;;;4.70;;
7813;SDS011;3952;48.364;16.022;2022-12-07T10:12:53;4.87;;;4.57;;
7813;SDS011;3952;48.364;16.022;2022-12-07T10:15:22;5.47;;;5.13;;
7813;SDS011;3952;48.364;16.022;2022-12-07T10:17:51;5.43;;;5.13;;
7813;SDS011;3952;48.364;16.022;2022-12-07T10:20:20;5.40;;;4.97;;
7813;SDS011;3952;48.364;16.022;2022-12-07T10:22:57;5.20;;;4.87;;
7813;SDS011;3952;48.364;16.022;2022-12-07T10:25:32;5.37;;;4.97;;
7813;SDS011;3952;48.364;16.022;2022-12-07T10:28:10;5.27;;;4.87;;
7813;SDS011;3952;48.364;16.022;2022-12-07T10:30:53;4.10;;;3.90;;
7813;SDS011;3952;48.364;16.022;2022-12-07T10:33:28;3.93;;;3.73;;
7813;SDS011;3952;48.364;16.022;2022-12-07T10:36:00;3.10;;;3.00;;
7813;SDS011;3952;48.364;16.022;2022-12-07T10:38:44;1.67;;;1.60;;
7813;SDS011;3952;48.364;16.022;2022-12-07T10:41:14;1.63;;;1.63;;
7813;SDS011;3952;48.364;16.022;2022-12-07T10:43:51;1.70;;;1.70;;
7813;SDS011;3952;48.364;16.022;2022-12-07T10:46:42;1.70;;;1.70;;
7813;SDS011;3952;48.364;16.022;2022-12-07T10:49:31;1.97;;;1.87;;
7813;SDS011;3952;48.364;16.022;2022-12-07T10:52:25;1.97;;;1.87;;
7813;SDS011;3952;48.364;16.022;2022-12-07T10:55:07;1.93;;;1.83;;
7813;SDS011;3952;48.364;16.022;2022-12-07T10:57:44;1.80;;;1.70;;
7813;SDS011;3952;48.364;16.022;2022-12-07T11:00:20;1.93;;;1.83;;
7813;SDS011;3952;48.364;16.022;2022-12-07T11:02:59;2.00;;;1.90;;
7813;SDS011;3952;48.364;16.022;2022-12-07T11:05:44;2.00;;;1.90;;
7813;SDS011;3952;48.364;16.022;2022-12-07T11:08:19;2.30;;;2.20;;
7813;SDS011;3952;48.364;16.022;2022-12-07T11:10:59;2.50;;;2.40;;
7813;SDS011;3952;48.364;16.022;2022-12-07T11:13:37;2.30;;;2.20;;
7813;SDS011;3952;48.364;16.022;2022-12-07T11:16:19;2.37;;;2.27;;
7813;SDS011;3952;48.364;16.022;2022-12-07T11:18:59;2.70;;;2.50;;
7813;SDS011;3952;48.364;16.022;2022-12-07T11:21:48;2.30;;;2.20;;
7813;SDS011;3952;48.364;16.022;2022-12-07T11:24:23;2.63;;;2.53;;
7813;SDS011;3952;48.364;16.022;2022-12-07T11:26:59;2.83;;;2.73;;
7813;SDS011;3952;48.364;16.022;2022-12-07T11:29:44;2.60;;;2.50;;
7813;SDS011;3952;48.364;16.022;2022-12-07T11:32:19;2.30;;;2.20;;
7813;SDS011;3952;48.364;16.022;2022-12-07T11:35:08;2.40;;;2.30;;
7813;SDS011;3952;48.364;16.022;2022-12-07T11:37:42;2.60;;;2.50;;
7813;SDS011;3952;48.364;16.022;2022-12-07T11:40:13;2.33;;;2.23;;
7813;SDS011;3952;48.364;16.022;2022-12-07T11:42:49;2.40;;;2.30;;
7813;SDS011;3952;48.364;16.022;2022-12-07T11:45:22;2.30;;;2.20;;
7813;SDS011;3952;48.364;16.022;2022-12-07T11:47:53;2.30;;;2.20;;
7813;SDS011;3952;48.364;16.022;2022-12-07T11:50:26;2.30;;;2.20;;
7813;SDS011;3952;48.364;16.022;2022-12-07T11:53:00;2.53;;;2.43;;
7813;SDS011;3952;48.364;16.022;2022-12-07T11:55:32;2.57;;;2.47;;
7813;SDS011;3952;48.364;16.022;2022-12-07T11:58:12;2.13;;;2.03;;
7813;SDS011;3952;48.364;16.022;2022-12-07T12:00:49;2.40;;;2.30;;
7813;SDS011;3952;48.364;16.022;2022-12-07T12:03:21;2.10;;;2.00;;
7813;SDS011;3952;48.364;16.022;2022-12-07T12:05:55;2.40;;;2.30;;
7813;SDS011;3952;48.364;16.022;2022-12-07T12:08:23;2.10;;;2.00;;
7813;SDS011;3952;48.364;16.022;2022-12-07T12:11:00;2.23;;;2.13;;
7813;SDS011;3952;48.364;16.022;2022-12-07T12:13:52;2.13;;;2.03;;
7813;SDS011;3952;48.364;16.022;2022-12-07T12:19:25;2.50;;;2.30;;
7813;SDS011;3952;48.364;16.022;2022-12-07T12:22:00;2.53;;;2.43;;
7813;SDS011;3952;48.364;16.022;2022-12-07T12:24:34;3.10;;;2.90;;
7813;SDS011;3952;48.364;16.022;2022-12-07T12:27:05;2.57;;;2.47;;
7813;SDS011;3952;48.364;16.022;2022-12-07T12:29:36;2.60;;;2.50;;
7813;SDS011;3952;48.364;16.022;2022-12-07T12:32:10;2.30;;;2.20;;
7813;SDS011;3952;48.364;16.022;2022-12-07T12:34:57;3.20;;;3.00;;
7813;SDS011;3952;48.364;16.022;2022-12-07T12:37:40;3.30;;;3.10;;
7813;SDS011;3952;48.364;16.022;2022-12-07T12:58:44;3.90;;;3.70;;
7813;SDS011;3952;48.364;16.022;2022-12-07T13:10:20;4.47;;;3.50;;
7813;SDS011;3952;48.364;16.022;2022-12-07T13:12:57;4.37;;;3.97;;
7813;SDS011;3952;48.364;16.022;2022-12-07T13:15:32;3.90;;;3.60;;
7813;SDS011;3952;48.364;16.022;2022-12-07T13:18:03;3.87;;;3.67;;
7813;SDS011;3952;48.364;16.022;2022-12-07T13:20:50;4.07;;;3.77;;
7813;SDS011;3952;48.364;16.022;2022-12-07T13:23:20;4.10;;;3.80;;
7813;SDS011;3952;48.364;16.022;2022-12-07T13:26:00;4.30;;;4.00;;
7813;SDS011;3952;48.364;16.022;2022-12-07T13:28:38;4.27;;;3.97;;
7813;SDS011;3952;48.364;16.022;2022-12-07T13:33:58;4.20;;;3.90;;
7813;SDS011;3952;48.364;16.022;2022-12-07T13:36:27;4.37;;;4.07;;
7813;SDS011;3952;48.364;16.022;2022-12-07T13:39:10;4.43;;;4.13;;
7813;SDS011;3952;48.364;16.022;2022-12-07T13:41:44;4.33;;;4.03;;
7813;SDS011;3952;48.364;16.022;2022-12-07T13:44:18;4.57;;;4.27;;
7813;SDS011;3952;48.364;16.022;2022-12-07T13:46:51;4.03;;;3.73;;
7813;SDS011;3952;48.364;16.022;2022-12-07T13:49:24;4.37;;;4.07;;
7813;SDS011;3952;48.364;16.022;2022-12-07T13:51:53;4.53;;;4.23;;
7813;SDS011;3952;48.364;16.022;2022-12-07T13:54:21;5.27;;;4.90;;
7813;SDS011;3952;48.364;16.022;2022-12-07T13:56:49;4.73;;;4.37;;
7813;SDS011;3952;48.364;16.022;2022-12-07T13:59:20;4.73;;;4.33;;
7813;SDS011;3952;48.364;16.022;2022-12-07T14:01:50;4.63;;;4.33;;
7813;SDS011;3952;48.364;16.022;2022-12-07T14:04:24;5.10;;;4.70;;
7813;SDS011;3952;48.364;16.022;2022-12-07T14:06:57;5.00;;;4.63;;
7813;SDS011;3952;48.364;16.022;2022-12-07T14:09:26;5.50;;;5.10;;
7813;SDS011;3952;48.364;16.022;2022-12-07T14:11:55;5.17;;;4.87;;
7813;SDS011;3952;48.364;16.022;2022-12-07T14:14:26;5.03;;;4.67;;
7813;SDS011;3952;48.364;16.022;2022-12-07T14:16:57;5.27;;;4.80;;
7813;SDS011;3952;48.364;16.022;2022-12-07T14:19:40;5.47;;;5.07;;
7813;SDS011;3952;48.364;16.022;2022-12-07T14:22:17;5.27;;;4.90;;
7813;SDS011;3952;48.364;16.022;2022-12-07T14:24:49;5.60;;;5.20;;
7813;SDS011;3952;48.364;16.022;2022-12-07T14:27:17;5.47;;;5.07;;
7813;SDS011;3952;48.364;16.022;2022-12-07T14:29:47;5.80;;;5.40;;
7813;SDS011;3952;48.364;16.022;2022-12-07T14:32:19;5.77;;;5.37;;
7813;SDS011;3952;48.364;16.022;2022-12-07T14:34:56;6.00;;;5.50;;
7813;SDS011;3952;48.364;16.022;2022-12-07T14:37:25;6.47;;;5.97;;
7813;SDS011;3952;48.364;16.022;2022-12-07T14:39:54;6.17;;;5.67;;
7813;SDS011;3952;48.364;16.022;2022-12-07T14:42:22;6.17;;;5.70;;
7813;SDS011;3952;48.364;16.022;2022-12-07T14:44:55;6.87;;;6.17;;
7813;SDS011;3952;48.364;16.022;2022-12-07T14:47:23;6.60;;;6.10;;
7813;SDS011;3952;48.364;16.022;2022-12-07T14:49:51;7.03;;;6.43;;
7813;SDS011;3952;48.364;16.022;2022-12-07T14:52:19;6.83;;;6.23;;
7813;SDS011;3952;48.364;16.022;2022-12-07T14:54:49;6.63;;;6.13;;
7813;SDS011;3952;48.364;16.022;2022-12-07T14:57:16;7.23;;;6.60;;
7813;SDS011;3952;48.364;16.022;2022-12-07T14:59:43;6.47;;;5.97;;
7813;SDS011;3952;48.364;16.022;2022-12-07T15:02:13;6.87;;;6.37;;
7813;SDS011;3952;48.364;16.022;2022-12-07T15:04:41;6.63;;;6.13;;
7813;SDS011;3952;48.364;16.022;2022-12-07T15:07:10;6.17;;;5.77;;
7813;SDS011;3952;48.364;16.022;2022-12-07T15:09:41;6.60;;;6.00;;
7813;SDS011;3952;48.364;16.022;2022-12-07T15:12:08;6.80;;;6.30;;
7813;SDS011;3952;48.364;16.022;2022-12-07T15:14:35;7.20;;;6.60;;
7813;SDS011;3952;48.364;16.022;2022-12-07T15:17:02;6.50;;;6.00;;
7813;SDS011;3952;48.364;16.022;2022-12-07T15:19:31;6.73;;;6.23;;
7813;SDS011;3952;48.364;16.022;2022-12-07T15:21:58;6.40;;;6.00;;
7813;SDS011;3952;48.364;16.022;2022-12-07T15:24:26;6.93;;;6.40;;
7813;SDS011;3952;48.364;16.022;2022-12-07T15:26:53;6.30;;;5.80;;
7813;SDS011;3952;48.364;16.022;2022-12-07T15:29:20;6.17;;;5.67;;
7813;SDS011;3952;48.364;16.022;2022-12-07T15:31:48;6.43;;;5.83;;
7813;SDS011;3952;48.364;16.022;2022-12-07T15:34:16;6.23;;;5.83;;
7813;SDS011;3952;48.364;16.022;2022-12-07T15:36:45;5.83;;;5.43;;
7813;SDS011;3952;48.364;16.022;2022-12-07T15:39:12;6.27;;;5.87;;
7813;SDS011;3952;48.364;16.022;2022-12-07T15:41:39;6.30;;;5.80;;
7813;SDS011;3952;48.364;16.022;2022-12-07T15:44:08;6.40;;;5.90;;
7813;SDS011;3952;48.364;16.022;2022-12-07T15:46:53;6.53;;;6.03;;
7813;SDS011;3952;48.364;16.022;2022-12-07T15:49:21;6.80;;;6.30;;
7813;SDS011;3952;48.364;16.022;2022-12-07T15:51:49;6.97;;;6.37;;